sensor_id;sensor_type;location;lat;lon;timestamp;temperature;humidity
27559;DHT22;15002;52.028;5.670;2023-04-01T00:02:18;12.90;99.90
27559;DHT22;15002;52.028;5.670;2023-04-01T00:04:44;13.00;99.90
27559;DHT22;15002;52.028;5.670;2023-04-01T00:07:10;13.00;99.90
27559;DHT22;15002;52.028;5.670;2023-04-01T00:09:36;13.10;99.90
27559;DHT22;15002;52.028;5.670;2023-04-01T00:12:02;13.10;99.90
27559;DHT22;15002;52.028;5.670;2023-04-01T00:14:27;13.00;99.90
27559;DHT22;15002;52.028;5.670;2023-04-01T00:16:54;13.00;99.90
27559;DHT22;15002;52.028;5.670;2023-04-01T00:19:20;13.00;99.90
27559;DHT22;15002;52.028;5.670;2023-04-01T00:21:45;13.10;99.90
27559;DHT22;15002;52.028;5.670;2023-04-01T00:24:12;13.00;99.90
27559;DHT22;15002;52.028;5.670;2023-04-01T00:26:37;12.90;99.90
27559;DHT22;15002;52.028;5.670;2023-04-01T00:29:03;12.90;99.90
27559;DHT22;15002;52.028;5.670;2023-04-01T00:31:29;13.00;99.90
27559;DHT22;15002;52.028;5.670;2023-04-01T00:33:55;13.00;99.90
27559;DHT22;15002;52.028;5.670;2023-04-01T00:36:21;13.00;99.90
27559;DHT22;15002;52.028;5.670;2023-04-01T00:38:49;13.10;99.90
27559;DHT22;15002;52.028;5.670;2023-04-01T00:41:16;13.00;99.90
27559;DHT22;15002;52.028;5.670;2023-04-01T00:43:48;13.10;99.90
27559;DHT22;15002;52.028;5.670;2023-04-01T00:46:14;13.20;99.90
27559;DHT22;15002;52.028;5.670;2023-04-01T00:48:43;13.20;99.90
27559;DHT22;15002;52.028;5.670;2023-04-01T00:51:13;13.10;99.90
27559;DHT22;15002;52.028;5.670;2023-04-01T00:53:43;13.10;99.90
27559;DHT22;15002;52.028;5.670;2023-04-01T00:56:27;13.00;99.90
27559;DHT22;15002;52.028;5.670;2023-04-01T00:58:59;13.10;99.90
27559;DHT22;15002;52.028;5.670;2023-04-01T01:01:26;13.10;99.90
27559;DHT22;15002;52.028;5.670;2023-04-01T01:03:53;12.90;99.90
27559;DHT22;15002;52.028;5.670;2023-04-01T01:12:02;13.10;99.90
27559;DHT22;15002;52.028;5.670;2023-04-01T01:17:28;13.00;99.90
27559;DHT22;15002;52.028;5.670;2023-04-01T01:20:03;13.00;99.90
27559;DHT22;15002;52.028;5.670;2023-04-01T01:30:43;12.90;99.90
27559;DHT22;15002;52.028;5.670;2023-04-01T01:33:23;12.80;99.90
27559;DHT22;15002;52.028;5.670;2023-04-01T01:35:54;12.80;99.90
27559;DHT22;15002;52.028;5.670;2023-04-01T01:38:24;12.70;99.90
27559;DHT22;15002;52.028;5.670;2023-04-01T01:40:52;12.90;99.90
27559;DHT22;15002;52.028;5.670;2023-04-01T01:43:24;12.90;99.90
27559;DHT22;15002;52.028;5.670;2023-04-01T01:45:59;12.90;99.90
27559;DHT22;15002;52.028;5.670;2023-04-01T01:48:27;12.80;99.90
27559;DHT22;15002;52.028;5.670;2023-04-01T01:50:53;12.80;99.90
27559;DHT22;15002;52.028;5.670;2023-04-01T01:53:19;12.80;99.90
27559;DHT22;15002;52.028;5.670;2023-04-01T01:55:46;12.80;99.90
27559;DHT22;15002;52.028;5.670;2023-04-01T01:58:27;12.80;99.90
27559;DHT22;15002;52.028;5.670;2023-04-01T02:00:59;12.80;99.90
27559;DHT22;15002;52.028;5.670;2023-04-01T02:03:28;12.70;99.90
27559;DHT22;15002;52.028;5.670;2023-04-01T02:05:57;12.60;99.90
27559;DHT22;15002;52.028;5.670;2023-04-01T02:08:47;12.70;99.90
27559;DHT22;15002;52.028;5.670;2023-04-01T02:11:22;12.70;99.90
27559;DHT22;15002;52.028;5.670;2023-04-01T02:14:17;12.50;99.90
27559;DHT22;15002;52.028;5.670;2023-04-01T02:16:56;12.60;99.90
27559;DHT22;15002;52.028;5.670;2023-04-01T02:19:27;12.70;99.90
27559;DHT22;15002;52.028;5.670;2023-04-01T02:22:00;12.70;99.90
27559;DHT22;15002;52.028;5.670;2023-04-01T02:24:28;12.70;99.90
27559;DHT22;15002;52.028;5.670;2023-04-01T02:26:55;12.70;99.90
27559;DHT22;15002;52.028;5.670;2023-04-01T02:29:23;12.70;99.90
27559;DHT22;15002;52.028;5.670;2023-04-01T02:31:51;12.80;99.90
27559;DHT22;15002;52.028;5.670;2023-04-01T02:34:17;12.70;99.90
27559;DHT22;15002;52.028;5.670;2023-04-01T02:36:44;12.70;99.90
27559;DHT22;15002;52.028;5.670;2023-04-01T02:39:10;12.80;99.90
27559;DHT22;15002;52.028;5.670;2023-04-01T02:41:40;12.80;99.90
27559;DHT22;15002;52.028;5.670;2023-04-01T02:44:06;12.80;99.90
27559;DHT22;15002;52.028;5.670;2023-04-01T02:46:32;12.70;99.90
27559;DHT22;15002;52.028;5.670;2023-04-01T02:48:58;12.50;99.90
27559;DHT22;15002;52.028;5.670;2023-04-01T02:51:25;12.60;99.90
27559;DHT22;15002;52.028;5.670;2023-04-01T02:53:50;12.70;99.90
27559;DHT22;15002;52.028;5.670;2023-04-01T02:56:16;12.60;99.90
27559;DHT22;15002;52.028;5.670;2023-04-01T02:58:42;12.60;99.90
27559;DHT22;15002;52.028;5.670;2023-04-01T03:01:07;12.60;99.90
27559;DHT22;15002;52.028;5.670;2023-04-01T03:03:33;12.60;99.90
27559;DHT22;15002;52.028;5.670;2023-04-01T03:06:08;12.50;99.90
27559;DHT22;15002;52.028;5.670;2023-04-01T03:08:34;12.50;99.90
27559;DHT22;15002;52.028;5.670;2023-04-01T03:11:00;12.50;99.90
27559;DHT22;15002;52.028;5.670;2023-04-01T03:13:26;12.50;99.90
27559;DHT22;15002;52.028;5.670;2023-04-01T03:15:52;12.60;99.90
27559;DHT22;15002;52.028;5.670;2023-04-01T03:18:19;12.50;99.90
27559;DHT22;15002;52.028;5.670;2023-04-01T03:20:44;12.50;99.90
27559;DHT22;15002;52.028;5.670;2023-04-01T03:23:10;12.50;99.90
27559;DHT22;15002;52.028;5.670;2023-04-01T03:25:36;12.50;99.90
27559;DHT22;15002;52.028;5.670;2023-04-01T03:28:03;12.50;99.90
27559;DHT22;15002;52.028;5.670;2023-04-01T03:30:29;12.50;99.90
27559;DHT22;15002;52.028;5.670;2023-04-01T03:32:58;12.60;99.90
27559;DHT22;15002;52.028;5.670;2023-04-01T03:35:24;12.50;99.90
27559;DHT22;15002;52.028;5.670;2023-04-01T03:37:51;12.50;99.90
27559;DHT22;15002;52.028;5.670;2023-04-01T03:40:17;12.50;99.90
27559;DHT22;15002;52.028;5.670;2023-04-01T03:42:42;12.50;99.90
27559;DHT22;15002;52.028;5.670;2023-04-01T03:45:08;12.50;99.90
27559;DHT22;15002;52.028;5.670;2023-04-01T03:47:35;12.40;99.90
27559;DHT22;15002;52.028;5.670;2023-04-01T03:50:00;12.50;99.90
27559;DHT22;15002;52.028;5.670;2023-04-01T03:52:26;12.50;99.90
27559;DHT22;15002;52.028;5.670;2023-04-01T03:54:52;12.50;99.90
27559;DHT22;15002;52.028;5.670;2023-04-01T03:57:18;12.50;99.90
27559;DHT22;15002;52.028;5.670;2023-04-01T03:59:43;12.60;99.90
27559;DHT22;15002;52.028;5.670;2023-04-01T04:02:09;12.70;99.90
27559;DHT22;15002;52.028;5.670;2023-04-01T04:04:34;12.50;99.90
27559;DHT22;15002;52.028;5.670;2023-04-01T04:07:00;12.40;99.90
27559;DHT22;15002;52.028;5.670;2023-04-01T04:09:26;12.50;99.90
27559;DHT22;15002;52.028;5.670;2023-04-01T04:11:52;12.50;99.90
27559;DHT22;15002;52.028;5.670;2023-04-01T04:14:18;12.40;99.90
27559;DHT22;15002;52.028;5.670;2023-04-01T04:16:44;12.60;99.90
27559;DHT22;15002;52.028;5.670;2023-04-01T04:19:09;12.60;99.90
27559;DHT22;15002;52.028;5.670;2023-04-01T04:21:35;12.70;99.90
27559;DHT22;15002;52.028;5.670;2023-04-01T04:24:02;12.70;99.90
27559;DHT22;15002;52.028;5.670;2023-04-01T04:26:28;12.70;99.90
27559;DHT22;15002;52.028;5.670;2023-04-01T04:28:54;12.70;99.90
27559;DHT22;15002;52.028;5.670;2023-04-01T04:31:22;12.60;99.90
27559;DHT22;15002;52.028;5.670;2023-04-01T04:33:48;12.60;99.90
27559;DHT22;15002;52.028;5.670;2023-04-01T04:36:14;12.60;99.90
27559;DHT22;15002;52.028;5.670;2023-04-01T04:38:40;12.70;99.90
27559;DHT22;15002;52.028;5.670;2023-04-01T04:41:10;12.50;99.90
27559;DHT22;15002;52.028;5.670;2023-04-01T04:43:37;12.60;99.90
27559;DHT22;15002;52.028;5.670;2023-04-01T04:46:07;12.70;99.90
27559;DHT22;15002;52.028;5.670;2023-04-01T04:48:33;12.70;99.90
27559;DHT22;15002;52.028;5.670;2023-04-01T04:50:59;12.90;99.90
27559;DHT22;15002;52.028;5.670;2023-04-01T04:53:25;12.80;99.90
27559;DHT22;15002;52.028;5.670;2023-04-01T04:55:51;12.80;99.90
27559;DHT22;15002;52.028;5.670;2023-04-01T04:58:17;12.80;99.90
27559;DHT22;15002;52.028;5.670;2023-04-01T05:00:43;12.90;99.90
27559;DHT22;15002;52.028;5.670;2023-04-01T05:03:10;12.90;99.90
27559;DHT22;15002;52.028;5.670;2023-04-01T05:05:36;12.80;99.90
27559;DHT22;15002;52.028;5.670;2023-04-01T05:08:02;12.90;99.90
27559;DHT22;15002;52.028;5.670;2023-04-01T05:10:28;12.90;99.90
27559;DHT22;15002;52.028;5.670;2023-04-01T05:12:54;12.90;99.90
27559;DHT22;15002;52.028;5.670;2023-04-01T05:15:20;12.90;99.90
27559;DHT22;15002;52.028;5.670;2023-04-01T05:17:46;12.90;99.90
27559;DHT22;15002;52.028;5.670;2023-04-01T05:20:13;12.90;99.90
27559;DHT22;15002;52.028;5.670;2023-04-01T05:22:39;13.00;99.90
27559;DHT22;15002;52.028;5.670;2023-04-01T05:25:05;13.00;99.90
27559;DHT22;15002;52.028;5.670;2023-04-01T05:27:31;12.90;99.90
27559;DHT22;15002;52.028;5.670;2023-04-01T05:29:57;12.90;99.90
27559;DHT22;15002;52.028;5.670;2023-04-01T05:32:23;13.00;99.90
27559;DHT22;15002;52.028;5.670;2023-04-01T05:34:52;12.90;99.90
27559;DHT22;15002;52.028;5.670;2023-04-01T05:37:18;13.00;99.90
27559;DHT22;15002;52.028;5.670;2023-04-01T05:39:44;13.00;99.90
27559;DHT22;15002;52.028;5.670;2023-04-01T05:42:10;13.00;99.90
27559;DHT22;15002;52.028;5.670;2023-04-01T05:44:36;13.00;99.90
27559;DHT22;15002;52.028;5.670;2023-04-01T05:47:03;12.90;99.90
27559;DHT22;15002;52.028;5.670;2023-04-01T05:49:29;13.00;99.90
27559;DHT22;15002;52.028;5.670;2023-04-01T05:51:55;13.00;99.90
27559;DHT22;15002;52.028;5.670;2023-04-01T05:54:21;13.00;99.90
27559;DHT22;15002;52.028;5.670;2023-04-01T05:56:47;13.00;99.90
27559;DHT22;15002;52.028;5.670;2023-04-01T05:59:13;13.10;99.90
27559;DHT22;15002;52.028;5.670;2023-04-01T06:01:39;13.10;99.90
27559;DHT22;15002;52.028;5.670;2023-04-01T06:04:04;13.10;99.90
27559;DHT22;15002;52.028;5.670;2023-04-01T06:06:31;13.10;99.90
27559;DHT22;15002;52.028;5.670;2023-04-01T06:09:07;13.10;99.90
27559;DHT22;15002;52.028;5.670;2023-04-01T06:11:51;13.20;99.90
27559;DHT22;15002;52.028;5.670;2023-04-01T06:14:49;13.20;99.90
27559;DHT22;15002;52.028;5.670;2023-04-01T06:17:50;13.20;99.90
27559;DHT22;15002;52.028;5.670;2023-04-01T06:29:43;13.10;99.90
27559;DHT22;15002;52.028;5.670;2023-04-01T06:32:48;13.20;99.90
27559;DHT22;15002;52.028;5.670;2023-04-01T06:35:31;13.30;99.90
27559;DHT22;15002;52.028;5.670;2023-04-01T06:38:18;13.30;99.90
27559;DHT22;15002;52.028;5.670;2023-04-01T06:41:06;13.30;99.90
27559;DHT22;15002;52.028;5.670;2023-04-01T06:52:26;13.40;99.90
27559;DHT22;15002;52.028;5.670;2023-04-01T06:57:49;13.50;99.90
27559;DHT22;15002;52.028;5.670;2023-04-01T07:00:29;13.60;99.90
27559;DHT22;15002;52.028;5.670;2023-04-01T07:05:31;13.60;99.90
27559;DHT22;15002;52.028;5.670;2023-04-01T07:08:01;13.60;99.90
27559;DHT22;15002;52.028;5.670;2023-04-01T07:10:56;13.60;99.90
27559;DHT22;15002;52.028;5.670;2023-04-01T07:13:49;13.60;99.90
27559;DHT22;15002;52.028;5.670;2023-04-01T07:16:41;13.50;99.90
27559;DHT22;15002;52.028;5.670;2023-04-01T07:19:24;13.50;99.90
27559;DHT22;15002;52.028;5.670;2023-04-01T07:22:05;13.50;99.90
27559;DHT22;15002;52.028;5.670;2023-04-01T07:24:41;13.50;99.90
27559;DHT22;15002;52.028;5.670;2023-04-01T07:27:11;13.40;99.90
27559;DHT22;15002;52.028;5.670;2023-04-01T07:29:37;13.50;99.90
27559;DHT22;15002;52.028;5.670;2023-04-01T07:32:32;13.60;99.90
27559;DHT22;15002;52.028;5.670;2023-04-01T07:35:27;13.60;99.90
27559;DHT22;15002;52.028;5.670;2023-04-01T07:41:22;13.60;99.90
27559;DHT22;15002;52.028;5.670;2023-04-01T07:44:05;13.60;99.90
27559;DHT22;15002;52.028;5.670;2023-04-01T07:52:51;13.70;99.90
27559;DHT22;15002;52.028;5.670;2023-04-01T07:57:55;13.60;99.90
27559;DHT22;15002;52.028;5.670;2023-04-01T08:00:31;13.70;99.90
27559;DHT22;15002;52.028;5.670;2023-04-01T08:06:00;13.70;99.90
27559;DHT22;15002;52.028;5.670;2023-04-01T08:08:36;13.70;99.90
27559;DHT22;15002;52.028;5.670;2023-04-01T08:16:31;13.80;99.90
27559;DHT22;15002;52.028;5.670;2023-04-01T08:21:43;13.80;99.90
27559;DHT22;15002;52.028;5.670;2023-04-01T08:24:13;13.90;99.90
27559;DHT22;15002;52.028;5.670;2023-04-01T08:26:45;14.00;99.90
27559;DHT22;15002;52.028;5.670;2023-04-01T08:29:21;14.00;99.90
27559;DHT22;15002;52.028;5.670;2023-04-01T08:34:25;14.10;99.90
27559;DHT22;15002;52.028;5.670;2023-04-01T08:37:01;14.00;99.90
27559;DHT22;15002;52.028;5.670;2023-04-01T08:39:35;14.20;99.90
27559;DHT22;15002;52.028;5.670;2023-04-01T08:56:20;14.40;99.90
27559;DHT22;15002;52.028;5.670;2023-04-01T08:59:14;14.30;99.90
27559;DHT22;15002;52.028;5.670;2023-04-01T09:10:32;14.30;99.90
27559;DHT22;15002;52.028;5.670;2023-04-01T09:13:29;14.20;99.90
27559;DHT22;15002;52.028;5.670;2023-04-01T09:16:26;14.20;99.90
27559;DHT22;15002;52.028;5.670;2023-04-01T09:27:33;14.20;99.90
27559;DHT22;15002;52.028;5.670;2023-04-01T09:36:43;14.30;99.90
27559;DHT22;15002;52.028;5.670;2023-04-01T10:11:22;15.40;99.90
27559;DHT22;15002;52.028;5.670;2023-04-01T10:37:30;16.30;99.90
27559;DHT22;15002;52.028;5.670;2023-04-01T10:40:34;16.30;99.90
27559;DHT22;15002;52.028;5.670;2023-04-01T10:48:29;16.30;99.90
27559;DHT22;15002;52.028;5.670;2023-04-01T10:51:16;16.20;99.90
27559;DHT22;15002;52.028;5.670;2023-04-01T10:54:05;16.30;99.90
27559;DHT22;15002;52.028;5.670;2023-04-01T11:16:39;15.90;99.90
27559;DHT22;15002;52.028;5.670;2023-04-01T11:42:09;15.60;99.90
27559;DHT22;15002;52.028;5.670;2023-04-01T11:44:47;15.40;99.90
27559;DHT22;15002;52.028;5.670;2023-04-01T11:47:36;15.10;99.90
27559;DHT22;15002;52.028;5.670;2023-04-01T11:50:31;14.90;99.90
27559;DHT22;15002;52.028;5.670;2023-04-01T11:56:20;14.90;99.90
27559;DHT22;15002;52.028;5.670;2023-04-01T11:59:29;15.00;99.90
27559;DHT22;15002;52.028;5.670;2023-04-01T12:04:51;15.10;99.90
27559;DHT22;15002;52.028;5.670;2023-04-01T12:07:29;14.90;99.90
27559;DHT22;15002;52.028;5.670;2023-04-01T12:18:33;14.80;99.90
27559;DHT22;15002;52.028;5.670;2023-04-01T12:23:51;15.00;99.90
27559;DHT22;15002;52.028;5.670;2023-04-01T12:35:15;14.60;99.90
27559;DHT22;15002;52.028;5.670;2023-04-01T12:38:20;14.60;99.90
27559;DHT22;15002;52.028;5.670;2023-04-01T12:41:07;14.70;99.90
27559;DHT22;15002;52.028;5.670;2023-04-01T12:46:20;14.90;99.90
27559;DHT22;15002;52.028;5.670;2023-04-01T12:57:22;15.10;99.90
27559;DHT22;15002;52.028;5.670;2023-04-01T13:11:02;15.20;99.90
27559;DHT22;15002;52.028;5.670;2023-04-01T13:19:21;14.50;99.90
27559;DHT22;15002;52.028;5.670;2023-04-01T13:24:42;14.60;99.90
27559;DHT22;15002;52.028;5.670;2023-04-01T13:27:25;14.60;99.90
27559;DHT22;15002;52.028;5.670;2023-04-01T13:35:43;14.70;99.90
27559;DHT22;15002;52.028;5.670;2023-04-01T13:41:09;14.80;99.90
27559;DHT22;15002;52.028;5.670;2023-04-01T13:43:59;14.80;99.90
27559;DHT22;15002;52.028;5.670;2023-04-01T13:46:32;14.80;99.90
27559;DHT22;15002;52.028;5.670;2023-04-01T13:54:28;14.80;99.90
27559;DHT22;15002;52.028;5.670;2023-04-01T14:06:55;14.80;99.90
27559;DHT22;15002;52.028;5.670;2023-04-01T14:12:36;14.70;99.90
27559;DHT22;15002;52.028;5.670;2023-04-01T14:18:21;14.70;99.90
27559;DHT22;15002;52.028;5.670;2023-04-01T14:29:10;14.90;99.90
27559;DHT22;15002;52.028;5.670;2023-04-01T14:34:30;14.80;99.90
27559;DHT22;15002;52.028;5.670;2023-04-01T14:40:22;14.70;99.90
27559;DHT22;15002;52.028;5.670;2023-04-01T14:49:04;14.70;99.90
27559;DHT22;15002;52.028;5.670;2023-04-01T14:51:36;14.60;99.90
27559;DHT22;15002;52.028;5.670;2023-04-01T14:54:11;14.70;99.90
27559;DHT22;15002;52.028;5.670;2023-04-01T14:56:40;14.60;99.90
27559;DHT22;15002;52.028;5.670;2023-04-01T14:59:29;14.60;99.90
27559;DHT22;15002;52.028;5.670;2023-04-01T15:13:22;14.10;99.90
27559;DHT22;15002;52.028;5.670;2023-04-01T15:16:02;14.30;99.90
27559;DHT22;15002;52.028;5.670;2023-04-01T15:19:05;14.50;99.90
27559;DHT22;15002;52.028;5.670;2023-04-01T15:24:25;14.50;99.90
27559;DHT22;15002;52.028;5.670;2023-04-01T15:33:14;14.30;99.90
27559;DHT22;15002;52.028;5.670;2023-04-01T15:41:16;14.10;99.90
27559;DHT22;15002;52.028;5.670;2023-04-01T15:43:48;14.10;99.90
27559;DHT22;15002;52.028;5.670;2023-04-01T15:46:41;14.00;99.90
27559;DHT22;15002;52.028;5.670;2023-04-01T15:49:37;13.70;99.90
27559;DHT22;15002;52.028;5.670;2023-04-01T15:52:23;13.20;99.90
27559;DHT22;15002;52.028;5.670;2023-04-01T16:12:04;13.40;99.90
27559;DHT22;15002;52.028;5.670;2023-04-01T16:20:19;13.50;99.90
27559;DHT22;15002;52.028;5.670;2023-04-01T16:23:33;13.50;99.90
27559;DHT22;15002;52.028;5.670;2023-04-01T16:26:07;13.60;99.90
27559;DHT22;15002;52.028;5.670;2023-04-01T16:31:52;13.30;99.90
27559;DHT22;15002;52.028;5.670;2023-04-01T16:34:30;13.20;99.90
27559;DHT22;15002;52.028;5.670;2023-04-01T16:37:05;13.50;99.90
27559;DHT22;15002;52.028;5.670;2023-04-01T16:47:38;12.80;99.90
27559;DHT22;15002;52.028;5.670;2023-04-01T16:52:52;13.20;99.90
27559;DHT22;15002;52.028;5.670;2023-04-01T16:55:21;13.10;99.90
27559;DHT22;15002;52.028;5.670;2023-04-01T16:57:52;12.90;99.90
27559;DHT22;15002;52.028;5.670;2023-04-01T17:00:28;12.70;99.90
27559;DHT22;15002;52.028;5.670;2023-04-01T17:03:13;12.70;99.90
27559;DHT22;15002;52.028;5.670;2023-04-01T17:06:12;12.60;99.90
27559;DHT22;15002;52.028;5.670;2023-04-01T17:23:00;12.20;99.90
27559;DHT22;15002;52.028;5.670;2023-04-01T17:26:15;12.00;99.90
27559;DHT22;15002;52.028;5.670;2023-04-01T17:28:49;12.20;99.90
27559;DHT22;15002;52.028;5.670;2023-04-01T17:34:18;12.00;99.90
27559;DHT22;15002;52.028;5.670;2023-04-01T17:37:04;11.80;99.90
27559;DHT22;15002;52.028;5.670;2023-04-01T17:43:01;12.00;99.90
27559;DHT22;15002;52.028;5.670;2023-04-01T17:45:33;11.60;99.90
27559;DHT22;15002;52.028;5.670;2023-04-01T17:54:20;11.60;99.90
27559;DHT22;15002;52.028;5.670;2023-04-01T18:12:29;11.60;99.90
27559;DHT22;15002;52.028;5.670;2023-04-01T18:15:08;11.80;99.90
27559;DHT22;15002;52.028;5.670;2023-04-01T18:25:48;11.30;99.90
27559;DHT22;15002;52.028;5.670;2023-04-01T18:28:36;11.50;99.90
27559;DHT22;15002;52.028;5.670;2023-04-01T18:36:40;11.10;99.90
27559;DHT22;15002;52.028;5.670;2023-04-01T18:42:08;11.00;99.90
27559;DHT22;15002;52.028;5.670;2023-04-01T18:44:46;11.00;99.90
27559;DHT22;15002;52.028;5.670;2023-04-01T18:50:28;10.60;99.90
27559;DHT22;15002;52.028;5.670;2023-04-01T18:53:15;10.70;99.90
27559;DHT22;15002;52.028;5.670;2023-04-01T18:56:03;10.60;99.90
27559;DHT22;15002;52.028;5.670;2023-04-01T19:06:59;10.50;99.90
27559;DHT22;15002;52.028;5.670;2023-04-01T19:09:43;10.50;99.90
27559;DHT22;15002;52.028;5.670;2023-04-01T19:12:43;10.40;99.90
27559;DHT22;15002;52.028;5.670;2023-04-01T19:20:59;10.90;99.90
27559;DHT22;15002;52.028;5.670;2023-04-01T19:32:25;11.00;99.90
27559;DHT22;15002;52.028;5.670;2023-04-01T19:37:40;10.40;99.90
27559;DHT22;15002;52.028;5.670;2023-04-01T19:46:04;10.30;99.90
27559;DHT22;15002;52.028;5.670;2023-04-01T20:04:55;10.00;99.90
27559;DHT22;15002;52.028;5.670;2023-04-01T20:07:43;9.90;99.90
27559;DHT22;15002;52.028;5.670;2023-04-01T20:10:22;10.20;99.90
27559;DHT22;15002;52.028;5.670;2023-04-01T20:15:43;10.40;99.90
27559;DHT22;15002;52.028;5.670;2023-04-01T20:18:26;10.50;99.90
27559;DHT22;15002;52.028;5.670;2023-04-01T20:21:06;10.10;99.90
27559;DHT22;15002;52.028;5.670;2023-04-01T20:23:54;9.80;99.90
27559;DHT22;15002;52.028;5.670;2023-04-01T20:26:27;10.10;99.90
27559;DHT22;15002;52.028;5.670;2023-04-01T20:32:17;9.70;99.90
27559;DHT22;15002;52.028;5.670;2023-04-01T20:37:47;9.90;99.90
27559;DHT22;15002;52.028;5.670;2023-04-01T20:40:39;10.10;99.90
27559;DHT22;15002;52.028;5.670;2023-04-01T20:57:24;9.50;99.90
27559;DHT22;15002;52.028;5.670;2023-04-01T21:03:01;9.50;99.90
27559;DHT22;15002;52.028;5.670;2023-04-01T21:08:49;9.60;99.90
27559;DHT22;15002;52.028;5.670;2023-04-01T21:16:34;9.40;99.90
27559;DHT22;15002;52.028;5.670;2023-04-01T21:24:42;9.70;99.90
27559;DHT22;15002;52.028;5.670;2023-04-01T21:46:47;9.40;99.90
27559;DHT22;15002;52.028;5.670;2023-04-01T21:57:51;9.20;99.90
27559;DHT22;15002;52.028;5.670;2023-04-01T22:00:20;9.10;99.90
27559;DHT22;15002;52.028;5.670;2023-04-01T22:03:05;9.00;99.90
27559;DHT22;15002;52.028;5.670;2023-04-01T22:10:58;9.20;99.90
27559;DHT22;15002;52.028;5.670;2023-04-01T22:13:32;9.00;99.90
27559;DHT22;15002;52.028;5.670;2023-04-01T22:22:17;9.50;99.90
27559;DHT22;15002;52.028;5.670;2023-04-01T22:25:14;9.30;99.90
27559;DHT22;15002;52.028;5.670;2023-04-01T22:27:48;9.20;99.90
27559;DHT22;15002;52.028;5.670;2023-04-01T22:30:34;9.20;99.90
27559;DHT22;15002;52.028;5.670;2023-04-01T22:47:45;9.00;99.90
27559;DHT22;15002;52.028;5.670;2023-04-01T22:50:37;8.70;99.90
27559;DHT22;15002;52.028;5.670;2023-04-01T22:53:35;8.50;99.90
27559;DHT22;15002;52.028;5.670;2023-04-01T22:56:15;8.60;99.90
27559;DHT22;15002;52.028;5.670;2023-04-01T22:58:56;8.70;99.90
27559;DHT22;15002;52.028;5.670;2023-04-01T23:01:30;8.60;99.90
27559;DHT22;15002;52.028;5.670;2023-04-01T23:03:58;8.70;99.90
27559;DHT22;15002;52.028;5.670;2023-04-01T23:06:27;8.80;99.90
27559;DHT22;15002;52.028;5.670;2023-04-01T23:08:59;8.90;99.90
27559;DHT22;15002;52.028;5.670;2023-04-01T23:11:32;9.20;99.90
27559;DHT22;15002;52.028;5.670;2023-04-01T23:16:36;8.90;99.90
27559;DHT22;15002;52.028;5.670;2023-04-01T23:21:49;8.50;99.90
27559;DHT22;15002;52.028;5.670;2023-04-01T23:24:41;8.20;99.90
27559;DHT22;15002;52.028;5.670;2023-04-01T23:27:19;8.20;99.90
27559;DHT22;15002;52.028;5.670;2023-04-01T23:29:48;8.40;99.90
27559;DHT22;15002;52.028;5.670;2023-04-01T23:32:17;8.70;99.90
27559;DHT22;15002;52.028;5.670;2023-04-01T23:34:49;8.30;99.90
27559;DHT22;15002;52.028;5.670;2023-04-01T23:37:15;8.10;99.90
27559;DHT22;15002;52.028;5.670;2023-04-01T23:39:49;8.10;99.90
27559;DHT22;15002;52.028;5.670;2023-04-01T23:42:21;8.40;99.90
27559;DHT22;15002;52.028;5.670;2023-04-01T23:44:49;8.50;99.90
27559;DHT22;15002;52.028;5.670;2023-04-01T23:47:22;8.40;99.90
27559;DHT22;15002;52.028;5.670;2023-04-01T23:49:53;8.30;99.90
27559;DHT22;15002;52.028;5.670;2023-04-01T23:52:26;8.40;99.90
27559;DHT22;15002;52.028;5.670;2023-04-01T23:57:36;8.30;99.90
